Time;durP1;ratioP1;P1;durP2;ratioP2;P2;SDS_P1;SDS_P2;PMS_P1;PMS_P2;Temp;Humidity;BMP_temperature;BMP_pressure;BME280_temperature;BME280_humidity;BME280_pressure;Samples;Min_cycle;Max_cycle;Signal;HPM_P1;HPM_P2
2021/09/23 00:01:34;;;;;;;6.22;5.63;;;;;;;;;;6225320;28;20056;-82
2021/09/23 00:04:35;;;;;;;6.43;5.03;;;;;;;;;;6224941;28;20025;-81
2021/09/23 00:07:35;;;;;;;6.43;5.70;;;10.20;99.90;;;;;;6242562;28;20537;-81
2021/09/23 00:10:37;;;;;;;6.28;5.20;;;;;;;;;;6224145;28;20051;-81
2021/09/23 00:13:37;;;;;;;9.27;5.35;;;10.30;99.90;;;;;;6208493;28;20453;-80
2021/09/23 00:16:38;;;;;;;7.55;5.10;;;10.60;99.90;;;;;;6190227;28;20072;-80
2021/09/23 00:19:39;;;;;;;7.78;5.47;;;10.40;99.90;;;;;;6207196;28;20096;-80
2021/09/23 00:22:39;;;;;;;7.25;5.18;;;10.40;99.90;;;;;;6207562;28;20025;-82
2021/09/23 00:25:40;;;;;;;6.07;5.15;;;;;;;;;;6190620;28;20041;-81
2021/09/23 00:28:43;;;;;;;9.98;5.65;;;10.50;99.90;;;;;;6201699;28;20364;-81
2021/09/23 00:31:43;;;;;;;8.32;5.60;;;10.60;99.90;;;;;;6223722;28;20367;-80
2021/09/23 00:34:45;;;;;;;9.93;6.25;;;;;;;;;;6221454;28;20041;-81
2021/09/23 00:37:46;;;;;;;7.00;5.50;;;10.80;99.90;;;;;;6206780;28;20021;-81
2021/09/23 00:40:46;;;;;;;7.38;5.38;;;10.50;99.90;;;;;;6223519;28;20363;-82
2021/09/23 00:43:47;;;;;;;6.05;5.30;;;10.50;99.90;;;;;;6223003;28;20026;-81
2021/09/23 00:46:48;;;;;;;6.10;5.30;;;10.70;99.90;;;;;;6210886;28;20482;-81
2021/09/23 00:49:50;;;;;;;7.57;4.82;;;;;;;;;;6210778;28;20041;-81
2021/09/23 00:52:50;;;;;;;5.90;4.82;;;10.90;99.90;;;;;;6227315;28;20774;-80
2021/09/23 00:55:51;;;;;;;6.90;5.15;;;10.70;99.90;;;;;;6194253;28;20021;-80
2021/09/23 00:58:52;;;;;;;5.47;4.63;;;10.70;99.90;;;;;;6210564;28;20037;-80
2021/09/23 01:01:52;;;;;;;7.30;5.13;;;11.00;99.90;;;;;;6188646;28;20053;-80
2021/09/23 01:04:53;;;;;;;7.68;5.40;;;;;;;;;;6210687;28;20029;-81
2021/09/23 01:07:54;;;;;;;6.25;5.22;;;;;;;;;;6223967;28;20033;-81
2021/09/23 01:10:55;;;;;;;8.20;4.95;;;;;;;;;;6244428;28;20483;-80
2021/09/23 01:13:56;;;;;;;5.32;4.82;;;;;;;;;;6227182;28;20021;-81
2021/09/23 01:16:57;;;;;;;5.25;4.57;;;10.80;99.90;;;;;;6227165;28;20044;-80
2021/09/23 01:19:58;;;;;;;5.60;4.75;;;11.20;99.90;;;;;;6189372;28;1103832;-82
2021/09/23 01:22:58;;;;;;;5.88;4.68;;;11.20;99.90;;;;;;6228499;28;20029;-82
2021/09/23 01:25:59;;;;;;;5.10;4.60;;;10.80;99.90;;;;;;6228148;28;20393;-81
2021/09/23 01:28:59;;;;;;;8.88;5.78;;;11.00;99.90;;;;;;6211782;28;20025;-81
2021/09/23 01:32:02;;;;;;;8.35;4.78;;;10.40;99.90;;;;;;6228159;28;20033;-80
2021/09/23 01:35:03;;;;;;;;;;;10.40;99.90;;;;;;6206672;28;20047;-81
2021/09/23 01:38:04;;;;;;;5.78;5.10;;;;;;;;;;6227366;28;19917;-81
2021/09/23 01:41:05;;;;;;;6.85;5.80;;;;;;;;;;6245424;28;20064;-81
2021/09/23 01:44:05;;;;;;;6.78;5.15;;;10.00;99.90;;;;;;6244347;28;20026;-82
2021/09/23 01:47:06;;;;;;;5.93;4.88;;;10.10;99.90;;;;;;6226125;28;20025;-81
2021/09/23 01:50:07;;;;;;;5.53;4.95;;;10.20;99.90;;;;;;6227705;28;20415;-82
2021/09/23 01:53:08;;;;;;;6.53;5.22;;;;;;;;;;6227220;28;20034;-81
2021/09/23 01:56:08;;;;;;;6.05;5.00;;;9.90;99.90;;;;;;6227179;28;20029;-81
2021/09/23 01:59:09;;;;;;;7.93;5.18;;;;;;;;;;6245075;28;20093;-81
2021/09/23 02:02:10;;;;;;;8.48;5.40;;;9.90;99.90;;;;;;6227467;28;20029;-81
2021/09/23 02:05:11;;;;;;;7.32;5.22;;;;;;;;;;6206805;28;20056;-81
2021/09/23 02:08:12;;;;;;;6.32;4.95;;;9.80;99.90;;;;;;6210635;28;20055;-82
2021/09/23 02:11:12;;;;;;;6.80;4.85;;;10.00;99.90;;;;;;6227012;28;20456;-82
2021/09/23 02:14:13;;;;;;;8.10;4.90;;;;;;;;;;6210323;28;20029;-81
2021/09/23 02:17:14;;;;;;;6.45;4.65;;;9.90;99.90;;;;;;6225080;28;20025;-81
2021/09/23 02:20:15;;;;;;;5.35;4.85;;;9.90;99.90;;;;;;6226797;28;20080;-82
2021/09/23 02:23:15;;;;;;;6.72;5.28;;;9.80;99.90;;;;;;6226998;28;20075;-81
2021/09/23 02:26:16;;;;;;;8.75;4.70;;;;;;;;;;6226722;28;20108;-81
2021/09/23 02:29:17;;;;;;;6.18;5.00;;;;;;;;;;6227185;28;20099;-81
2021/09/23 02:32:18;;;;;;;5.97;4.90;;;;;;;;;;6210199;28;20021;-80
2021/09/23 02:35:19;;;;;;;6.80;4.82;;;9.40;99.90;;;;;;6226691;28;20116;-81
2021/09/23 02:38:20;;;;;;;6.03;4.90;;;;;;;;;;6226764;28;20046;-80
2021/09/23 02:41:20;;;;;;;4.93;4.43;;;9.50;99.90;;;;;;6226777;28;20421;-81
2021/09/23 02:44:21;;;;;;;6.47;4.95;;;;;;;;;;6226940;28;20033;-81
2021/09/23 02:47:23;;;;;;;9.32;5.13;;;;;;;;;;6236395;28;20026;-81
2021/09/23 02:50:23;;;;;;;6.72;4.90;;;9.00;99.90;;;;;;6226506;28;20060;-81
2021/09/23 02:53:24;;;;;;;8.18;4.93;;;;;;;;;;6226563;28;20033;-80
2021/09/23 02:56:25;;;;;;;5.28;4.53;;;9.20;99.90;;;;;;6241966;28;20045;-81
2021/09/23 02:59:25;;;;;;;6.30;5.18;;;8.90;99.90;;;;;;6207665;28;20029;-80
2021/09/23 03:02:26;;;;;;;6.45;5.57;;;9.10;99.90;;;;;;6193355;28;20025;-80
2021/09/23 03:05:27;;;;;;;8.50;5.10;;;;;;;;;;6208888;28;20088;-81
2021/09/23 03:08:28;;;;;;;8.73;5.55;;;9.30;99.90;;;;;;6220956;28;20112;-81
2021/09/23 03:11:28;;;;;;;7.72;5.43;;;9.30;99.90;;;;;;6225921;28;20422;-80
2021/09/23 03:14:29;;;;;;;11.50;8.50;;;9.40;99.90;;;;;;6192758;28;20029;-80
2021/09/23 03:17:29;;;;;;;10.05;7.45;;;9.20;99.90;;;;;;6243340;28;20041;-81
2021/09/23 03:20:30;;;;;;;8.95;6.85;;;9.50;99.90;;;;;;6242997;28;20129;-81
2021/09/23 03:23:30;;;;;;;10.38;6.78;;;9.50;99.90;;;;;;6208832;28;20375;-81
2021/09/23 03:26:31;;;;;;;9.18;6.78;;;9.50;99.90;;;;;;6243174;28;20079;-80
2021/09/23 03:29:32;;;;;;;7.05;5.75;;;;;;;;;;6238143;28;20729;-80
2021/09/23 03:32:33;;;;;;;6.20;5.20;;;9.40;99.90;;;;;;6225463;28;20474;-79
2021/09/23 03:35:34;;;;;;;6.63;5.70;;;;;;;;;;6209005;28;20017;-80
2021/09/23 03:38:35;;;;;;;12.63;8.73;;;9.10;99.90;;;;;;6225523;28;20480;-80
2021/09/23 03:41:35;;;;;;;6.70;5.07;;;9.40;99.90;;;;;;6225576;28;20125;-81
2021/09/23 03:44:36;;;;;;;5.68;4.30;;;9.20;99.90;;;;;;6225670;28;20345;-80
2021/09/23 03:47:37;;;;;;;6.38;4.75;;;;;;;;;;6192319;28;20471;-81
2021/09/23 03:50:37;;;;;;;5.72;4.75;;;8.80;99.90;;;;;;6225609;28;20067;-81
2021/09/23 03:53:38;;;;;;;5.88;5.28;;;8.60;99.90;;;;;;6224893;28;20040;-80
2021/09/23 03:56:39;;;;;;;7.70;5.15;;;;;;;;;;6225029;28;20041;-82
2021/09/23 03:59:40;;;;;;;6.53;5.15;;;8.60;99.90;;;;;;6208765;28;20033;-80
2021/09/23 04:02:40;;;;;;;6.57;5.00;;;8.80;99.90;;;;;;6225317;28;20034;-81
2021/09/23 04:05:41;;;;;;;7.38;5.53;;;8.50;99.90;;;;;;6225267;28;20099;-81
2021/09/23 04:08:41;;;;;;;5.93;5.32;;;8.40;99.90;;;;;;6208347;28;20025;-82
2021/09/23 04:11:42;;;;;;;6.50;5.03;;;8.30;99.90;;;;;;6208724;28;20021;-81
2021/09/23 04:14:43;;;;;;;5.88;5.28;;;;;;;;;;6225040;28;20447;-81
2021/09/23 04:17:44;;;;;;;6.97;6.35;;;8.40;99.90;;;;;;6242499;28;20037;-81
2021/09/23 04:20:45;;;;;;;6.93;5.85;;;8.40;99.90;;;;;;6227376;28;20503;-80
2021/09/23 04:23:46;;;;;;;6.15;5.38;;;8.20;99.90;;;;;;6228553;28;20032;-81
2021/09/23 04:26:47;;;;;;;6.93;5.50;;;8.20;99.90;;;;;;6197166;28;20091;-81
2021/09/23 04:29:48;;;;;;;6.03;4.85;;;;;;;;;;6212786;28;20029;-80
2021/09/23 04:32:49;;;;;;;8.07;5.90;;;;;;;;;;6211738;28;20078;-81
2021/09/23 04:35:49;;;;;;;6.00;4.75;;;8.50;99.90;;;;;;6246426;28;20029;-82
2021/09/23 04:38:50;;;;;;;7.47;5.75;;;;;;;;;;6228254;28;20557;-80
2021/09/23 04:41:51;;;;;;;6.47;5.30;;;8.30;99.90;;;;;;6212656;28;20021;-79
2021/09/23 04:44:52;;;;;;;7.63;5.15;;;8.40;99.90;;;;;;6229150;28;20038;-80
2021/09/23 04:47:52;;;;;;;6.75;5.30;;;;;;;;;;6196535;28;20041;-80
2021/09/23 04:50:53;;;;;;;6.22;5.40;;;8.40;99.90;;;;;;6229444;28;20120;-80
2021/09/23 04:53:54;;;;;;;5.90;5.13;;;8.40;99.90;;;;;;6228748;28;20022;-80
2021/09/23 04:56:55;;;;;;;5.75;5.13;;;8.60;99.90;;;;;;6246606;28;20079;-80
2021/09/23 04:59:56;;;;;;;6.53;5.45;;;8.60;99.90;;;;;;6194925;28;20116;-81
2021/09/23 05:02:56;;;;;;;15.32;6.68;;;8.50;99.90;;;;;;6205044;28;20037;-82
2021/09/23 05:05:57;;;;;;;5.70;5.05;;;;;;;;;;6244698;28;20360;-81
2021/09/23 05:08:58;;;;;;;6.05;5.13;;;;;;;;;;6211601;28;20075;-80
2021/09/23 05:11:59;;;;;;;10.40;5.40;;;8.40;99.90;;;;;;6246422;28;20025;-81
2021/09/23 05:15:00;;;;;;;6.15;5.03;;;;;;;;;;6211420;28;20033;-81
2021/09/23 05:18:01;;;;;;;7.70;4.57;;;;;;;;;;6228281;28;20490;-81
2021/09/23 05:21:01;;;;;;;14.93;11.73;;;8.40;99.90;;;;;;6209745;28;20103;-80
2021/09/23 05:24:02;;;;;;;9.68;8.48;;;8.00;99.90;;;;;;6211864;28;20025;-80
2021/09/23 05:27:03;;;;;;;17.20;11.85;;;8.00;99.90;;;;;;6246224;28;20059;-80
2021/09/23 05:30:05;;;;;;;19.77;13.45;;;8.00;99.90;;;;;;6195478;28;20029;-83
2021/09/23 05:33:07;;;;;;;16.98;13.23;;;8.00;99.90;;;;;;6228353;28;20030;-80
2021/09/23 05:36:08;;;;;;;6.82;5.47;;;;;;;;;;6212068;28;20030;-77
2021/09/23 05:39:09;;;;;;;6.25;5.53;;;8.10;99.90;;;;;;6211124;28;20360;-80
2021/09/23 05:42:10;;;;;;;7.70;5.57;;;8.10;99.90;;;;;;6198648;28;20021;-79
2021/09/23 05:45:11;;;;;;;7.40;5.32;;;8.10;99.90;;;;;;6211420;28;20021;-78
2021/09/23 05:48:12;;;;;;;7.00;5.47;;;7.80;99.90;;;;;;6227303;28;20090;-78
2021/09/23 05:51:12;;;;;;;8.80;6.30;;;8.00;99.90;;;;;;6226056;28;20022;-80
2021/09/23 05:54:13;;;;;;;28.35;16.23;;;8.10;99.90;;;;;;6224489;28;20033;-78
2021/09/23 05:57:20;;;;;;;12.32;8.68;;;8.60;99.90;;;;;;6227122;28;20119;-78
2021/09/23 06:00:21;;;;;;;6.82;5.93;;;8.90;99.90;;;;;;6244410;28;20025;-78
2021/09/23 06:03:21;;;;;;;6.95;5.10;;;9.50;99.90;;;;;;6244118;28;20029;-79
2021/09/23 06:06:22;;;;;;;4.75;4.25;;;;;;;;;;6244807;28;20356;-79
2021/09/23 06:09:23;;;;;;;7.82;5.30;;;;;;;;;;6226680;28;20017;-78
2021/09/23 06:12:24;;;;;;;7.20;5.13;;;;;;;;;;6244527;28;20049;-78
2021/09/23 06:15:25;;;;;;;7.18;5.18;;;12.90;99.90;;;;;;6227154;28;20420;-79
2021/09/23 06:18:25;;;;;;;6.38;4.50;;;13.60;99.90;;;;;;6226350;28;20093;-79
2021/09/23 06:21:26;;;;;;;7.13;4.80;;;;;;;;;;6226495;28;20091;-79
2021/09/23 06:24:27;;;;;;;7.05;5.13;;;14.70;99.90;;;;;;6242481;28;20037;-78
2021/09/23 06:27:28;;;;;;;10.00;4.75;;;;;;;;;;6225838;28;20041;-80
2021/09/23 06:30:29;;;;;;;6.95;4.68;;;14.80;99.90;;;;;;6226247;28;20021;-80
2021/09/23 06:33:29;;;;;;;6.90;4.63;;;15.30;99.90;;;;;;6226282;28;20480;-79
2021/09/23 06:36:33;;;;;;;5.80;4.07;;;16.10;99.90;;;;;;6220120;28;20034;-78
2021/09/23 06:39:33;;;;;;;5.32;4.47;;;16.10;99.90;;;;;;6223300;28;20061;-78
2021/09/23 06:42:34;;;;;;;7.60;4.38;;;;;;;;;;6223186;28;20025;-79
2021/09/23 06:45:35;;;;;;;6.00;4.53;;;16.90;99.90;;;;;;6224077;28;20376;-78
2021/09/23 06:48:36;;;;;;;5.40;4.55;;;16.90;99.90;;;;;;6240586;28;20491;-79
2021/09/23 06:51:36;;;;;;;6.68;5.20;;;17.30;99.90;;;;;;6224879;28;20460;-78
2021/09/23 06:54:37;;;;;;;7.57;4.60;;;17.60;99.90;;;;;;6243606;28;20057;-78
2021/09/23 06:57:37;;;;;;;10.90;4.78;;;17.60;99.90;;;;;;6243351;28;20072;-79
2021/09/23 07:00:38;;;;;;;6.32;4.97;;;18.00;99.90;;;;;;6225676;28;20112;-80
2021/09/23 07:03:39;;;;;;;10.00;4.22;;;18.80;99.90;;;;;;6225703;28;20025;-79
2021/09/23 07:06:40;;;;;;;6.13;4.90;;;18.70;99.20;;;;;;6208831;28;20541;-79
2021/09/23 07:09:40;;;;;;;4.85;4.43;;;18.80;97.60;;;;;;6225674;28;20013;-79
2021/09/23 07:12:41;;;;;;;5.13;4.63;;;18.80;97.60;;;;;;6224478;28;20026;-78
2021/09/23 07:15:41;;;;;;;5.00;4.05;;;18.80;97.00;;;;;;6243210;28;20109;-78
2021/09/23 07:18:42;;;;;;;4.30;3.90;;;19.00;96.90;;;;;;6225300;28;20053;-78
2021/09/23 07:21:42;;;;;;;6.68;4.90;;;19.10;96.50;;;;;;6225461;28;20172;-78
2021/09/23 07:24:43;;;;;;;5.20;4.20;;;19.40;95.50;;;;;;6225312;28;20026;-78
2021/09/23 07:27:44;;;;;;;5.18;4.20;;;19.60;94.70;;;;;;6191706;28;20539;-78
2021/09/23 07:30:44;;;;;;;4.53;3.88;;;20.20;94.00;;;;;;6225079;28;20430;-77
2021/09/23 07:33:45;;;;;;;5.43;4.18;;;20.60;93.40;;;;;;6208914;28;20034;-78
2021/09/23 07:36:46;;;;;;;4.50;3.47;;;20.90;92.60;;;;;;6242325;28;20050;-78
2021/09/23 07:39:46;;;;;;;5.35;3.65;;;21.10;92.60;;;;;;6225555;28;20061;-78
2021/09/23 07:42:47;;;;;;;4.00;3.60;;;21.10;92.10;;;;;;6224916;28;20025;-79
2021/09/23 07:45:48;;;;;;;5.32;3.95;;;;;;;;;;6224956;28;20034;-78
2021/09/23 07:48:53;;;;;;;5.15;3.70;;;21.20;95.60;;;;;;6242954;28;20029;-78
2021/09/23 07:51:53;;;;;;;6.00;3.72;;;21.20;90.30;;;;;;6209217;28;20379;-79
2021/09/23 07:54:55;;;;;;;5.25;3.90;;;21.80;90.50;;;;;;6219063;28;20045;-78
2021/09/23 07:57:56;;;;;;;6.38;3.92;;;23.80;87.60;;;;;;6247351;28;20403;-80
2021/09/23 08:00:58;;;;;;;3.88;3.55;;;23.20;85.40;;;;;;6229625;28;20044;-79
2021/09/23 08:03:59;;;;;;;3.85;3.33;;;23.50;82.10;;;;;;6211573;28;20018;-79
2021/09/23 08:06:59;;;;;;;4.15;3.50;;;21.80;80.90;;;;;;6213606;28;20052;-79
2021/09/23 08:10:00;;;;;;;3.92;3.53;;;22.90;91.70;;;;;;6246965;28;20478;-80
2021/09/23 08:13:00;;;;;;;4.32;3.80;;;23.00;79.40;;;;;;6229370;28;20037;-80
2021/09/23 08:16:01;;;;;;;6.18;3.75;;;23.30;90.20;;;;;;6229566;28;20399;-80
2021/09/23 08:19:02;;;;;;;4.38;3.63;;;23.30;95.90;;;;;;6212805;28;20057;-80
2021/09/23 08:22:05;;;;;;;4.20;3.80;;;24.00;96.30;;;;;;6229542;28;20029;-80
2021/09/23 08:25:07;;;;;;;4.47;3.85;;;24.30;85.00;;;;;;6229106;28;20037;-80
2021/09/23 08:28:08;;;;;;;5.13;3.80;;;;;;;;;;6228187;28;20031;-81
2021/09/23 08:31:12;;;;;;;5.03;3.90;;;;;;;;;;6219424;28;20026;-81
2021/09/23 08:34:13;;;;;;;4.75;3.90;;;;;;;;;;6246795;28;20075;-79
2021/09/23 08:37:14;;;;;;;5.93;4.17;;;;;;;;;;6240360;28;20045;-80
2021/09/23 08:40:15;;;;;;;4.00;3.60;;;25.60;78.20;;;;;;6228665;28;20526;-79
2021/09/23 08:43:16;;;;;;;5.90;4.20;;;25.90;69.50;;;;;;6206401;28;20088;-80
2021/09/23 08:46:16;;;;;;;5.20;4.57;;;26.10;68.30;;;;;;6228612;28;20058;-80
2021/09/23 08:49:17;;;;;;;5.10;4.40;;;26.10;67.30;;;;;;6228724;28;20022;-80
2021/09/23 08:52:18;;;;;;;5.87;4.57;;;26.40;67.80;;;;;;6246555;28;20040;-79
2021/09/23 08:55:29;;;;;;;6.73;4.73;;;26.60;67.70;;;;;;6228802;28;20124;-79
2021/09/23 08:58:30;;;;;;;5.10;4.60;;;26.60;65.80;;;;;;6228437;28;20072;-79
2021/09/23 09:01:40;;;;;;;4.83;4.13;;;27.00;64.80;;;;;;6246465;28;20525;-79
2021/09/23 09:04:40;;;;;;;4.75;4.35;;;27.00;64.10;;;;;;6229154;28;20040;-79
2021/09/23 09:07:41;;;;;;;5.77;4.07;;;27.20;64.20;;;;;;6245762;28;20770;-79
2021/09/23 09:10:41;;;;;;;4.93;4.50;;;26.90;65.10;;;;;;6228338;28;20025;-79
2021/09/23 09:13:43;;;;;;;4.90;4.50;;;26.80;64.30;;;;;;6228107;28;20463;-80
2021/09/23 09:16:44;;;;;;;5.47;4.35;;;26.90;63.60;;;;;;6211948;28;20038;-80
2021/09/23 09:19:45;;;;;;;4.73;4.27;;;27.00;62.60;;;;;;6195297;28;20053;-79
2021/09/23 09:22:46;;;;;;;5.97;4.68;;;27.20;62.20;;;;;;6227335;28;20025;-79
2021/09/23 09:25:47;;;;;;;5.30;4.60;;;27.50;63.50;;;;;;6203668;28;20382;-79
2021/09/23 09:28:53;;;;;;;5.27;4.27;;;27.30;62.30;;;;;;6245358;28;20017;-80
2021/09/23 09:31:53;;;;;;;5.47;4.97;;;27.30;60.10;;;;;;6195516;28;20033;-79
2021/09/23 09:34:55;;;;;;;4.67;4.27;;;27.00;62.00;;;;;;6245379;28;20083;-79
2021/09/23 09:37:59;;;;;;;4.80;4.40;;;26.80;62.90;;;;;;6210005;28;20391;-77
2021/09/23 09:41:00;;;;;;;6.22;4.95;;;26.80;76.60;;;;;;6228100;28;20035;-80
2021/09/23 09:44:03;;;;;;;5.32;4.63;;;26.70;63.60;;;;;;6223901;28;20036;-79
2021/09/23 09:47:04;;;;;;;4.80;4.30;;;26.80;63.10;;;;;;6211424;28;20099;-80
2021/09/23 09:50:15;;;;;;;4.10;3.70;;;27.20;63.10;;;;;;6226881;28;20462;-80
2021/09/23 09:53:15;;;;;;;7.80;5.00;;;27.40;61.50;;;;;;6244900;28;20029;-80
2021/09/23 09:56:22;;;;;;;23.53;13.63;;;27.60;68.20;;;;;;6224762;28;20045;-79
2021/09/23 09:59:23;;;;;;;7.35;4.93;;;27.20;67.60;;;;;;6225743;28;20116;-80
2021/09/23 10:02:23;;;;;;;4.43;3.43;;;27.30;69.00;;;;;;6227140;28;20028;-80
2021/09/23 10:05:24;;;;;;;4.50;3.93;;;27.20;82.80;;;;;;6211048;28;20037;-80
2021/09/23 10:08:24;;;;;;;9.17;4.70;;;27.30;68.00;;;;;;6226680;28;20037;-80
2021/09/23 10:11:28;;;;;;;12.40;7.00;;;27.30;65.20;;;;;;6244278;28;20020;-79
2021/09/23 10:14:29;;;;;;;23.08;11.40;;;27.30;68.60;;;;;;6226655;28;20367;-80
2021/09/23 10:17:30;;;;;;;7.07;4.53;;;27.20;59.80;;;;;;6225791;28;20132;-80
2021/09/23 10:20:31;;;;;;;4.00;3.60;;;27.00;60.00;;;;;;6210132;28;20072;-79
2021/09/23 10:23:39;;;;;;;7.33;5.63;;;27.10;58.60;;;;;;6226189;28;20083;-80
2021/09/23 10:26:40;;;;;;;10.35;6.25;;;27.40;59.30;;;;;;6228033;28;20407;-80
2021/09/23 10:29:41;;;;;;;;;;;27.90;57.50;;;;;;6210441;28;20069;-80
2021/09/23 10:32:41;;;;;;;6.40;3.22;;;27.30;56.10;;;;;;6226088;28;19915;-80
2021/09/23 10:35:42;;;;;;;4.50;3.50;;;27.50;57.20;;;;;;6226569;28;20403;-80
2021/09/23 10:38:43;;;;;;;3.67;3.20;;;27.60;58.20;;;;;;6226012;28;20395;-80
2021/09/23 10:41:44;;;;;;;3.75;3.35;;;27.80;58.30;;;;;;6211613;28;20340;-80
2021/09/23 10:44:46;;;;;;;4.03;3.45;;;27.80;57.90;;;;;;6226457;28;20124;-80
2021/09/23 10:47:47;;;;;;;4.10;3.55;;;28.00;57.70;;;;;;6243708;28;20394;-80
2021/09/23 10:50:48;;;;;;;5.13;3.38;;;27.90;58.10;;;;;;6243016;28;20029;-80
2021/09/23 10:53:52;;;;;;;3.60;3.30;;;27.80;58.70;;;;;;6226156;28;20426;-80
2021/09/23 10:56:53;;;;;;;4.85;3.85;;;27.70;61.10;;;;;;6225704;28;20076;-80
2021/09/23 10:59:54;;;;;;;4.77;3.80;;;27.30;58.70;;;;;;6193111;28;20398;-80
2021/09/23 11:02:55;;;;;;;4.05;3.40;;;27.20;62.20;;;;;;6225365;28;20275;-80
2021/09/23 11:05:55;;;;;;;3.53;3.15;;;27.40;61.20;;;;;;6225629;28;20040;-80
2021/09/23 11:08:56;;;;;;;4.93;3.57;;;27.40;61.40;;;;;;6224371;28;20083;-79
2021/09/23 11:11:58;;;;;;;4.70;3.53;;;27.50;59.60;;;;;;6224931;28;20064;-79
2021/09/23 11:14:59;;;;;;;4.05;3.50;;;27.50;61.70;;;;;;6209401;28;20105;-80
2021/09/23 11:18:00;;;;;;;13.55;6.38;;;27.40;62.10;;;;;;6225550;28;20045;-80
2021/09/23 11:21:01;;;;;;;4.37;3.40;;;27.40;61.90;;;;;;6201829;28;20038;-81
2021/09/23 11:24:02;;;;;;;6.82;4.03;;;27.30;88.80;;;;;;6200750;28;20416;-79
2021/09/23 11:27:03;;;;;;;5.45;3.63;;;27.30;87.70;;;;;;6201105;28;20092;-80
2021/09/23 11:30:06;;;;;;;5.73;3.73;;;27.20;89.50;;;;;;6200224;28;20033;-80
2021/09/23 11:33:08;;;;;;;4.07;3.67;;;27.20;90.00;;;;;;6185123;28;20037;-80
2021/09/23 11:36:10;;;;;;;5.45;3.63;;;27.20;88.50;;;;;;6169236;28;20045;-80
2021/09/23 11:39:20;;;;;;;4.45;3.70;;;27.00;90.40;;;;;;6201031;28;20088;-80
2021/09/23 11:42:23;;;;;;;4.88;3.63;;;;;;;;;;6185351;28;20025;-80
2021/09/23 11:45:25;;;;;;;4.95;4.30;;;27.00;70.00;;;;;;6184860;28;20455;-80
2021/09/23 11:48:30;;;;;;;5.18;4.30;;;26.90;64.40;;;;;;6184565;28;20503;-80
2021/09/23 11:51:30;;;;;;;5.05;3.88;;;26.80;78.00;;;;;;6184431;28;20038;-80
2021/09/23 11:54:31;;;;;;;4.03;3.53;;;26.80;63.00;;;;;;6168358;28;20411;-79
2021/09/23 11:57:32;;;;;;;7.53;3.93;;;26.60;63.80;;;;;;6168146;28;20057;-79
2021/09/23 12:00:51;;;;;;;4.13;3.47;;;26.60;78.40;;;;;;6218330;28;20030;-80
2021/09/23 12:03:51;;;;;;;4.70;3.75;;;26.40;63.20;;;;;;6182979;28;20030;-80
2021/09/23 12:07:18;;;;;;;4.70;3.70;;;26.40;66.00;;;;;;6200234;28;20132;-79
2021/09/23 12:10:21;;;;;;;4.88;3.88;;;;;;;;;;6179530;28;20103;-79
2021/09/23 12:13:36;;;;;;;4.18;3.78;;;26.00;62.90;;;;;;6217312;28;20520;-80
2021/09/23 12:16:37;;;;;;;5.82;4.05;;;;;;;;;;6202326;28;20117;-80
2021/09/23 12:19:37;;;;;;;3.80;3.47;;;25.80;65.20;;;;;;6229193;28;20076;-80
2021/09/23 12:22:38;;;;;;;4.20;3.53;;;25.70;65.30;;;;;;6224469;28;20026;-79
2021/09/23 12:25:38;;;;;;;4.03;3.63;;;25.50;64.70;;;;;;6208544;28;20044;-80
2021/09/23 12:29:09;;;;;;;4.13;3.70;;;25.40;67.20;;;;;;6224276;28;20033;-80
2021/09/23 12:32:09;;;;;;;4.43;3.70;;;25.30;66.70;;;;;;6213714;28;20132;-80
2021/09/23 12:35:17;;;;;;;5.50;4.13;;;25.10;68.20;;;;;;6208230;28;20467;-79
2021/09/23 12:38:18;;;;;;;5.72;3.70;;;24.80;67.50;;;;;;6204279;28;20049;-80
2021/09/23 12:41:20;;;;;;;4.07;3.47;;;24.70;69.10;;;;;;6226425;28;20170;-80
2021/09/23 12:44:22;;;;;;;6.82;4.25;;;24.60;70.80;;;;;;6229008;28;20344;-80
2021/09/23 12:47:23;;;;;;;4.63;3.90;;;24.40;68.20;;;;;;6228875;28;20032;-80
2021/09/23 12:50:24;;;;;;;4.87;3.50;;;24.40;86.00;;;;;;6227955;28;20029;-79
2021/09/23 12:53:25;;;;;;;7.07;3.97;;;24.30;69.20;;;;;;6212343;28;20021;-79
2021/09/23 12:56:25;;;;;;;5.93;3.87;;;24.30;69.90;;;;;;6228929;28;20124;-78
2021/09/23 12:59:26;;;;;;;6.33;4.20;;;24.40;71.40;;;;;;6212017;28;20045;-79
2021/09/23 13:02:26;;;;;;;4.27;3.87;;;24.30;88.30;;;;;;6211987;28;20470;-79
2021/09/23 13:05:28;;;;;;;4.10;3.50;;;24.20;96.30;;;;;;6228580;28;20444;-79
2021/09/23 13:08:28;;;;;;;4.38;3.97;;;24.40;96.30;;;;;;6212459;28;20087;-79
2021/09/23 13:11:29;;;;;;;3.80;3.50;;;24.20;92.50;;;;;;6229570;28;20419;-77
2021/09/23 13:14:29;;;;;;;4.73;3.90;;;24.20;85.80;;;;;;6245267;28;20033;-78
2021/09/23 13:17:30;;;;;;;4.20;3.80;;;24.20;73.90;;;;;;6246072;28;20033;-77
2021/09/23 13:20:33;;;;;;;4.40;3.97;;;24.20;75.80;;;;;;6209208;28;20061;-78
2021/09/23 13:23:40;;;;;;;4.15;3.75;;;24.30;73.80;;;;;;6203761;28;20030;-78
2021/09/23 13:26:44;;;;;;;5.55;4.25;;;24.30;75.60;;;;;;6204072;28;20018;-78
2021/09/23 13:29:44;;;;;;;5.97;3.80;;;24.30;75.20;;;;;;6204185;28;20036;-78
2021/09/23 13:32:47;;;;;;;4.37;3.90;;;24.30;90.50;;;;;;6202824;28;20449;-78
2021/09/23 13:35:51;;;;;;;4.88;4.10;;;24.20;90.80;;;;;;6202675;28;20542;-77
2021/09/23 13:38:53;;;;;;;4.47;3.70;;;24.10;74.90;;;;;;6203753;28;20041;-78
2021/09/23 13:41:54;;;;;;;4.25;3.85;;;23.90;74.70;;;;;;6220381;28;20018;-77
2021/09/23 13:44:54;;;;;;;5.33;4.27;;;23.90;76.70;;;;;;6201214;28;20116;-78
2021/09/23 13:47:56;;;;;;;3.83;3.37;;;23.90;76.20;;;;;;6196703;28;20429;-78
2021/09/23 13:50:57;;;;;;;4.27;3.87;;;24.00;76.60;;;;;;6201749;28;20415;-78
2021/09/23 13:53:58;;;;;;;4.72;4.00;;;23.80;77.30;;;;;;6219270;28;20034;-78
2021/09/23 13:56:58;;;;;;;4.63;4.10;;;23.90;75.70;;;;;;6202520;28;20559;-78
2021/09/23 13:59:59;;;;;;;5.43;3.70;;;23.70;73.80;;;;;;6203364;28;20460;-78
2021/09/23 14:03:00;;;;;;;4.57;4.00;;;23.80;73.30;;;;;;6202676;28;20400;-78
2021/09/23 14:06:01;;;;;;;4.40;3.33;;;23.50;76.00;;;;;;6220032;28;20034;-77
2021/09/23 14:09:01;;;;;;;4.07;3.67;;;23.60;73.90;;;;;;6220212;28;20034;-78
2021/09/23 14:12:02;;;;;;;4.00;3.60;;;23.60;75.30;;;;;;6202496;28;20029;-79
2021/09/23 14:15:04;;;;;;;4.43;3.67;;;23.60;74.50;;;;;;6202422;28;20120;-77
2021/09/23 14:18:04;;;;;;;5.28;3.50;;;23.50;73.90;;;;;;6186003;28;20141;-78
2021/09/23 14:21:05;;;;;;;6.18;3.88;;;23.30;95.40;;;;;;6224758;28;20050;-77
2021/09/23 14:24:06;;;;;;;3.63;3.30;;;;;;;;;;6244465;28;20075;-77
2021/09/23 14:27:07;;;;;;;3.88;3.50;;;;;;;;;;6244083;28;20021;-78
2021/09/23 14:30:08;;;;;;;4.23;3.83;;;23.30;83.50;;;;;;6244337;28;20017;-78
2021/09/23 14:33:10;;;;;;;4.00;3.60;;;23.40;90.30;;;;;;6226182;28;20033;-77
2021/09/23 14:36:10;;;;;;;5.82;4.38;;;23.40;84.80;;;;;;6210075;28;20370;-79
2021/09/23 14:39:11;;;;;;;3.90;3.50;;;23.50;90.60;;;;;;6226118;28;20038;-79
2021/09/23 14:42:12;;;;;;;4.40;3.85;;;23.30;75.10;;;;;;6225629;28;20448;-79
2021/09/23 14:45:14;;;;;;;5.57;4.10;;;23.30;76.10;;;;;;6226419;28;20513;-79
2021/09/23 14:48:14;;;;;;;4.68;4.20;;;23.20;91.00;;;;;;6224549;28;20029;-80
2021/09/23 14:51:15;;;;;;;5.80;4.90;;;23.20;75.80;;;;;;6208974;28;20456;-79
2021/09/23 14:54:16;;;;;;;5.07;4.50;;;23.10;77.60;;;;;;6225661;28;20051;-79
2021/09/23 14:57:16;;;;;;;5.18;4.65;;;23.10;77.20;;;;;;6209803;28;20395;-79
2021/09/23 15:00:17;;;;;;;5.57;4.60;;;23.10;79.10;;;;;;6208733;28;20132;-79
2021/09/23 15:03:22;;;;;;;9.35;5.10;;;23.00;78.50;;;;;;6225713;28;20418;-78
2021/09/23 15:06:22;;;;;;;6.32;4.78;;;23.00;79.70;;;;;;6226329;28;20041;-79
2021/09/23 15:09:23;;;;;;;5.57;4.63;;;22.90;79.90;;;;;;6223032;28;20467;-79
2021/09/23 15:12:23;;;;;;;8.00;4.97;;;22.90;79.70;;;;;;6204309;28;20021;-79
2021/09/23 15:15:24;;;;;;;7.18;5.18;;;;;;;;;;6225701;28;20071;-79
2021/09/23 15:18:25;;;;;;;6.03;4.97;;;22.80;78.80;;;;;;6224805;28;20052;-81
2021/09/23 15:21:26;;;;;;;5.40;4.90;;;;;;;;;;6224953;28;20036;-79
2021/09/23 15:24:26;;;;;;;6.20;4.93;;;22.70;93.40;;;;;;6225242;28;20041;-78
2021/09/23 15:27:27;;;;;;;4.65;4.22;;;22.50;91.60;;;;;;6224633;28;20517;-79
2021/09/23 15:30:28;;;;;;;4.60;4.20;;;22.40;79.90;;;;;;6208127;28;20063;-79
2021/09/23 15:33:28;;;;;;;4.97;4.47;;;22.50;79.90;;;;;;6224678;28;20056;-79
2021/09/23 15:36:29;;;;;;;5.10;4.60;;;22.50;80.40;;;;;;6225191;28;20029;-78
2021/09/23 15:39:30;;;;;;;4.63;4.22;;;22.40;80.80;;;;;;6225154;28;20439;-78
2021/09/23 15:42:30;;;;;;;5.32;4.78;;;22.30;80.10;;;;;;6223507;28;20029;-78
2021/09/23 15:45:31;;;;;;;5.05;4.53;;;22.40;81.30;;;;;;6225247;28;20112;-78
2021/09/23 15:48:32;;;;;;;5.18;4.32;;;22.30;81.60;;;;;;6220028;28;20076;-78
2021/09/23 15:51:32;;;;;;;5.10;4.60;;;22.10;81.80;;;;;;6239429;28;20026;-77
2021/09/23 15:54:33;;;;;;;4.93;4.10;;;22.10;80.50;;;;;;6225015;28;20113;-77
2021/09/23 15:57:34;;;;;;;6.47;4.60;;;22.00;80.30;;;;;;6223341;28;20407;-77
2021/09/23 16:00:35;;;;;;;5.57;4.35;;;;;;;;;;6242114;28;20422;-78
2021/09/23 16:03:35;;;;;;;4.80;4.30;;;21.90;80.50;;;;;;6225570;28;20083;-79
2021/09/23 16:06:36;;;;;;;5.18;4.43;;;21.90;82.70;;;;;;6192676;28;20083;-78
2021/09/23 16:09:37;;;;;;;4.95;4.38;;;21.90;94.10;;;;;;6208413;28;20025;-77